Time;durP1;ratioP1;P1;durP2;ratioP2;P2;SDS_P1;SDS_P2;PMS_P1;PMS_P2;Temp;Humidity;BMP_temperature;BMP_pressure;BME280_temperature;BME280_humidity;BME280_pressure;Samples;Min_cycle;Max_cycle;Signal;HPM_P1;HPM_P2
2022/03/30 00:00:06;;;;;;;26.00;11.43;;;;;;;;;;5102616;28;20060;-85
2022/03/30 00:02:32;;;;;;;26.35;11.02;;;;;;;;;;5102245;28;20048;-84
2022/03/30 00:04:59;;;;;;;29.10;11.73;;;;;;;;;;5103284;28;20092;-83
2022/03/30 00:07:28;;;;;;;31.45;12.95;;;;;;;;;;5120346;28;20846;-84
2022/03/30 00:09:54;;;;;;;37.70;12.70;;;;;;;;;;5102427;28;20125;-84
2022/03/30 00:12:21;;;;;;;31.85;12.45;;;;;;;;;;5119854;28;20479;-83
2022/03/30 00:14:47;;;;;;;29.90;12.00;;;;;;;;;;5101665;28;20059;-85
2022/03/30 00:17:14;;;;;;;33.85;11.88;;;;;;;;;;5121445;28;20048;-84
2022/03/30 00:19:41;;;;;;;39.70;11.95;;;;;;;;;;5120972;28;20040;-85
2022/03/30 00:22:07;;;;;;;27.67;12.13;;;;;;;;;;5120286;28;20106;-84
2022/03/30 00:24:34;;;;;;;24.00;11.50;;;;;;;;;;5100252;28;20138;-82
2022/03/30 00:27:02;;;;;;;27.65;11.40;;;;;;;;;;5121393;28;20105;-82
2022/03/30 00:29:28;;;;;;;32.58;12.07;;;;;;;;;;5101604;28;20048;-83
2022/03/30 00:31:55;;;;;;;28.70;12.38;;;;;;;;;;5101869;28;20067;-84
2022/03/30 00:34:21;;;;;;;33.42;12.30;;;;;;;;;;5102916;28;20058;-84
2022/03/30 00:36:48;;;;;;;27.45;12.65;;;;;;;;;;5110523;28;20060;-82
2022/03/30 00:39:16;;;;;;;33.03;12.68;;;;;;;;;;5112251;28;20075;-83
2022/03/30 00:41:43;;;;;;;29.17;12.75;;;;;;;;;;5120146;28;20048;-83
2022/03/30 00:44:10;;;;;;;33.38;12.13;;;;;;;;;;5120183;28;20052;-82
2022/03/30 00:46:43;;;;;;;33.08;12.68;;;;;;;;;;5119835;28;20048;-83
2022/03/30 00:49:09;;;;;;;28.98;12.73;;;;;;;;;;5119177;28;20048;-82
2022/03/30 00:51:36;;;;;;;27.05;11.63;;;;;;;;;;5101992;28;20032;-83
2022/03/30 00:54:02;;;;;;;32.15;12.65;;;;;;;;;;5104496;28;20044;-84
2022/03/30 00:56:30;;;;;;;30.52;11.68;;;;;;;;;;5105683;28;20070;-84
2022/03/30 00:58:56;;;;;;;31.10;12.30;;;;;;;;;;5104699;28;20032;-83
2022/03/30 01:01:23;;;;;;;29.92;12.88;;;;;;;;;;5122488;28;20089;-84
2022/03/30 01:03:50;;;;;;;32.95;12.52;;;;;;;;;;5122724;28;20527;-83
2022/03/30 01:06:16;;;;;;;33.50;12.77;;;;;;;;;;5122430;28;20044;-83
2022/03/30 01:08:43;;;;;;;28.98;13.18;;;;;;;;;;5121537;27;20102;-84
2022/03/30 01:11:10;;;;;;;32.10;12.68;;;;;;;;;;5099425;28;20882;-84
2022/03/30 01:13:37;;;;;;;32.88;12.57;;;;;;;;;;5121209;28;20052;-83
2022/03/30 01:16:23;;;;;;;29.13;12.63;;;;;;;;;;5121556;28;20515;-84
2022/03/30 01:19:00;;;;;;;26.02;12.75;;;;;;;;;;5121724;28;20055;-83
2022/03/30 01:21:26;;;;;;;33.35;12.68;;;;;;;;;;5121630;28;20044;-82
2022/03/30 01:23:53;;;;;;;29.85;12.55;;;;;;;;;;5119138;28;20032;-82
2022/03/30 01:26:19;;;;;;;26.48;11.23;;;;;;;;;;5123259;28;20040;-82
2022/03/30 01:28:45;;;;;;;35.13;13.10;;;;;;;;;;5124520;28;20109;-84
2022/03/30 01:33:57;;;;;;;39.45;12.77;;;;;;;;;;5114238;28;20066;-83
2022/03/30 01:36:25;;;;;;;29.75;13.15;;;;;;;;;;5122273;28;20048;-83
2022/03/30 01:38:51;;;;;;;31.63;12.85;;;;;;;;;;5122674;28;20067;-83
2022/03/30 01:41:18;;;;;;;31.23;13.10;;;;;;;;;;5122755;28;20074;-84
2022/03/30 01:43:45;;;;;;;30.20;12.77;;;;;;;;;;5121013;28;20056;-83
2022/03/30 01:46:12;;;;;;;33.03;11.40;;;;;;;;;;5122158;28;20064;-82
2022/03/30 01:48:38;;;;;;;25.05;11.20;;;;;;;;;;5122642;28;20095;-82
2022/03/30 01:51:05;;;;;;;31.27;11.73;;;;;;;;;;5105767;28;20045;-84
2022/03/30 01:53:31;;;;;;;30.65;11.10;;;;;;;;;;5104770;28;20048;-84
2022/03/30 01:55:57;;;;;;;32.95;12.73;;;;;;;;;;5108486;28;20052;-85
2022/03/30 01:58:24;;;;;;;31.88;12.88;;;;;;;;;;5100665;28;20040;-84
2022/03/30 02:00:51;;;;;;;28.90;11.85;;;;;;;;;;5122119;28;20044;-83
2022/03/30 02:03:18;;;;;;;34.00;11.82;;;;;;;;;;5121551;28;20553;-84
2022/03/30 02:05:44;;;;;;;29.83;11.60;;;;;;;;;;5096357;28;20063;-82
2022/03/30 02:08:11;;;;;;;36.13;12.25;;;;;;;;;;5110599;28;20580;-81
2022/03/30 02:10:38;;;;;;;35.25;11.65;;;;;;;;;;5109715;28;20581;-82
2022/03/30 02:13:05;;;;;;;35.20;11.88;;;;;;;;;;5090793;28;20052;-83
2022/03/30 02:15:32;;;;;;;43.10;12.75;;;;;;;;;;5103402;27;20048;-81
2022/03/30 02:17:59;;;;;;;34.20;12.75;;;;;;;;;;5112330;27;20083;-84
2022/03/30 02:20:25;;;;;;;31.20;12.02;;;;;;;;;;5110484;28;20056;-83
2022/03/30 02:22:51;;;;;;;33.35;12.32;;;;;;;;;;5092705;28;20568;-82
2022/03/30 02:25:18;;;;;;;30.02;11.75;;;;;;;;;;5093798;28;20052;-81
2022/03/30 02:27:44;;;;;;;33.78;11.95;;;;;;;;;;5111047;28;20126;-81
2022/03/30 02:30:11;;;;;;;34.42;12.57;;;;;;;;;;5110594;28;20113;-84
2022/03/30 02:32:37;;;;;;;34.88;11.95;;;;;;;;;;5091730;28;20037;-83
2022/03/30 02:35:05;;;;;;;32.80;12.15;;;;;;;;;;5101595;28;20048;-81
2022/03/30 02:37:32;;;;;;;36.75;12.15;;;;;;;;;;5094563;28;20098;-81
2022/03/30 02:39:58;;;;;;;32.05;11.35;;;;;;;;;;5111838;28;20065;-81
2022/03/30 02:42:24;;;;;;;37.58;12.82;;;;;;;;;;5112756;28;20575;-81
2022/03/30 02:44:51;;;;;;;31.65;12.10;;;;;;;;;;5112797;28;20048;-81
2022/03/30 02:48:17;;;;;;;33.03;12.40;;;;;;;;;;5111059;28;20056;-83
2022/03/30 02:50:04;;;;;;;30.33;12.00;;;;;;;;;;5112175;28;20113;-83
2022/03/30 02:52:30;;;;;;;32.00;10.65;;;;;;;;;;5112794;28;20052;-82
2022/03/30 02:54:56;;;;;;;31.88;11.98;;;;;;;;;;5094708;28;20056;-83
2022/03/30 02:57:24;;;;;;;31.80;11.75;;;;;;;;;;5095918;28;20032;-81
2022/03/30 02:59:50;;;;;;;34.67;11.48;;;;;;;;;;5113179;28;20578;-81
2022/03/30 03:02:16;;;;;;;26.50;10.85;;;;;;;;;;5113603;28;20124;-84
2022/03/30 03:04:43;;;;;;;30.38;11.23;;;;;;;;;;5095935;28;20138;-83
2022/03/30 03:07:09;;;;;;;29.90;11.95;;;;;;;;;;5113703;28;20079;-82
2022/03/30 03:09:35;;;;;;;30.70;11.80;;;;;;;;;;5113128;28;20056;-81
2022/03/30 03:12:02;;;;;;;33.28;12.18;;;;;;;;;;5095955;28;20052;-81
2022/03/30 03:14:28;;;;;;;32.38;11.18;;;;;;;;;;5095238;27;20144;-82
2022/03/30 03:16:55;;;;;;;25.33;11.13;;;;;;;;;;5096047;28;20172;-81
2022/03/30 03:19:21;;;;;;;31.60;11.95;;;;;;;;;;5113122;27;20052;-84
2022/03/30 03:21:48;;;;;;;27.73;11.77;;;;;;;;;;5108260;28;20090;-84
2022/03/30 03:24:14;;;;;;;30.88;11.82;;;;;;;;;;5114589;28;20063;-81
2022/03/30 03:26:41;;;;;;;33.10;12.27;;;;;;;;;;5114928;28;20109;-81
2022/03/30 03:29:07;;;;;;;31.98;11.90;;;;;;;;;;5096439;28;20085;-81
2022/03/30 03:31:33;;;;;;;26.02;12.02;;;;;;;;;;5115650;28;20078;-83
2022/03/30 03:34:00;;;;;;;31.00;11.38;;;;;;;;;;5097161;28;20090;-84
2022/03/30 03:36:26;;;;;;;36.42;12.55;;;;;;;;;;5113870;28;20048;-85
2022/03/30 03:38:52;;;;;;;30.75;11.60;;;;;;;;;;5092280;28;20056;-83
2022/03/30 03:41:20;;;;;;;35.63;12.05;;;;;;;;;;5116095;28;20051;-83
2022/03/30 03:43:46;;;;;;;30.25;11.93;;;;;;;;;;5115515;28;20913;-82
2022/03/30 03:46:13;;;;;;;32.83;11.82;;;;;;;;;;5095234;28;20056;-81
2022/03/30 03:48:39;;;;;;;39.03;12.98;;;;;;;;;;5117029;28;20036;-81
2022/03/30 03:51:06;;;;;;;30.25;11.82;;;;;;;;;;5097177;28;20040;-81
2022/03/30 03:53:34;;;;;;;29.50;12.00;;;;;;;;;;5117069;28;20044;-83
2022/03/30 03:56:04;;;;;;;30.50;12.15;;;;;;;;;;5117233;28;20032;-83
2022/03/30 03:58:31;;;;;;;35.50;12.68;;;;;;;;;;5100379;28;20935;-81
2022/03/30 04:00:57;;;;;;;31.52;12.07;;;;;;;;;;5119926;28;20506;-82
2022/03/30 04:03:24;;;;;;;32.45;11.30;;;;;;;;;;5120035;28;20102;-85
2022/03/30 04:05:50;;;;;;;35.58;12.15;;;;;;;;;;5100831;28;20043;-79
2022/03/30 04:08:17;;;;;;;31.48;11.68;;;;;;;;;;5118026;28;20078;-80
2022/03/30 04:10:43;;;;;;;32.22;11.95;;;;;;;;;;5102528;28;20052;-79
2022/03/30 04:13:09;;;;;;;32.35;11.55;;;;;;;;;;5119954;28;20052;-79
2022/03/30 04:15:37;;;;;;;28.40;11.10;;;;;;;;;;5120456;28;20043;-80
2022/03/30 04:18:04;;;;;;;36.97;12.20;;;;;;;;;;5120729;28;20082;-81
2022/03/30 04:20:31;;;;;;;31.60;11.52;;;;;;;;;;5102269;28;20056;-80
2022/03/30 04:22:58;;;;;;;41.47;12.45;;;;;;;;;;5120574;28;20036;-81
2022/03/30 04:25:24;;;;;;;35.13;13.27;;;;;;;;;;5119063;27;21182;-79
2022/03/30 04:27:52;;;;;;;34.60;12.10;;;;;;;;;;5119542;27;20099;-81
2022/03/30 04:30:19;;;;;;;34.90;13.32;;;;;;;;;;5120075;28;20036;-80
2022/03/30 04:32:46;;;;;;;31.83;12.27;;;;;;;;;;5123700;28;20118;-82
2022/03/30 04:35:13;;;;;;;38.33;12.23;;;;;;;;;;5123236;28;20032;-81
2022/03/30 04:37:40;;;;;;;34.22;13.13;;;;;;;;;;5123965;27;20044;-82
2022/03/30 04:40:07;;;;;;;31.48;12.05;;;;;;;;;;5124622;28;20040;-79
2022/03/30 04:42:34;;;;;;;31.15;11.93;;;;;;;;;;5123725;28;20063;-82
2022/03/30 04:45:00;;;;;;;31.15;11.57;;;;;;;;;;5123496;28;20044;-80
2022/03/30 04:47:27;;;;;;;29.58;12.15;;;;;;;;;;5106052;28;20126;-82
2022/03/30 04:49:53;;;;;;;37.78;11.95;;;;;;;;;;5108121;28;20775;-81
2022/03/30 04:52:19;;;;;;;28.08;11.23;;;;;;;;;;5125570;28;20070;-81
2022/03/30 04:54:46;;;;;;;29.73;11.32;;;;;;;;;;5123920;28;20110;-82
2022/03/30 04:57:12;;;;;;;28.38;11.43;;;;;;;;;;5125517;28;20052;-82
2022/03/30 04:59:42;;;;;;;32.00;11.82;;;;;;;;;;5125436;28;20052;-82
2022/03/30 05:02:09;;;;;;;30.00;10.35;;;;;;;;;;5123369;28;20059;-80
2022/03/30 05:04:35;;;;;;;27.50;10.75;;;;;;;;;;5137763;27;20096;-82
2022/03/30 05:07:02;;;;;;;27.80;10.02;;;;;;;;;;5114635;28;20868;-79
2022/03/30 05:09:28;;;;;;;30.60;11.15;;;;;;;;;;5125955;28;20063;-81
2022/03/30 05:11:55;;;;;;;29.17;10.80;;;;;;;;;;5107521;28;20069;-82
2022/03/30 05:14:22;;;;;;;30.20;11.63;;;;;;;;;;5117344;28;20044;-82
2022/03/30 05:16:48;;;;;;;29.67;11.60;;;;;;;;;;5112794;28;20048;-82
2022/03/30 05:19:15;;;;;;;31.33;11.23;;;;;;;;;;5129260;28;20044;-82
2022/03/30 05:21:42;;;;;;;28.52;10.63;;;;;;;;;;5128021;28;20142;-83
2022/03/30 05:24:08;;;;;;;33.35;11.55;;;;;;;;;;5129933;28;20044;-82
2022/03/30 05:26:34;;;;;;;29.13;10.90;;;;;;;;;;5128546;28;20048;-82
2022/03/30 05:29:01;;;;;;;27.38;10.70;;;;;;;;;;5131121;28;20032;-82
2022/03/30 05:31:27;;;;;;;27.13;10.52;;;;;;;;;;5112889;27;20067;-82
2022/03/30 05:33:54;;;;;;;34.95;12.68;;;;;;;;;;5120022;27;20070;-82
2022/03/30 05:36:20;;;;;;;31.00;10.75;;;;;;;;;;5130920;28;20058;-82
2022/03/30 05:38:48;;;;;;;31.67;11.70;;;;;;;;;;5132896;27;20047;-82
2022/03/30 05:41:15;;;;;;;33.75;11.23;;;;;;;;;;5130610;27;20032;-81
2022/03/30 05:43:42;;;;;;;31.50;11.55;;;;;;;;;;5126822;28;20514;-82
2022/03/30 05:46:08;;;;;;;35.67;12.20;;;;;;;;;;5110561;28;20052;-81
2022/03/30 05:48:35;;;;;;;36.83;11.23;;;;;;;;;;5128271;28;20044;-82
2022/03/30 05:51:02;;;;;;;39.67;11.13;;;;;;;;;;5108953;28;20044;-81
2022/03/30 05:53:28;;;;;;;31.50;10.60;;;;;;;;;;5127419;28;20052;-81
2022/03/30 05:55:55;;;;;;;26.13;9.93;;;;;;;;;;5127251;28;20036;-82
2022/03/30 05:58:22;;;;;;;29.42;10.48;;;;;;;;;;5129060;28;20048;-82
2022/03/30 06:00:50;;;;;;;30.35;12.27;;;;;;;;;;5127999;28;20075;-81
2022/03/30 06:03:17;;;;;;;25.83;10.07;;;;;;;;;;5127222;28;20048;-81
2022/03/30 06:05:43;;;;;;;26.05;10.45;;;;;;;;;;5109618;28;20087;-81
2022/03/30 06:08:10;;;;;;;33.20;11.18;;;;;;;;;;5127582;28;20056;-82
2022/03/30 06:10:37;;;;;;;22.27;10.75;;;;;;;;;;5124735;28;20054;-81
2022/03/30 06:13:04;;;;;;;27.58;10.30;;;;;;;;;;5126637;28;20052;-80
2022/03/30 06:15:31;;;;;;;26.67;10.40;;;;;;;;;;5126814;28;20074;-82
2022/03/30 06:17:58;;;;;;;29.27;11.88;;;;;;;;;;5126269;28;20074;-82
2022/03/30 06:20:25;;;;;;;24.45;10.95;;;;;;;;;;5124862;28;20122;-81
2022/03/30 06:22:52;;;;;;;33.15;10.55;;;;;;;;;;5109078;28;20050;-81
2022/03/30 06:25:22;;;;;;;34.13;11.93;;;;;;;;;;5126881;28;21807;-82
2022/03/30 06:27:49;;;;;;;32.72;11.13;;;;;;;;;;5109509;28;20032;-84
2022/03/30 06:30:15;;;;;;;27.13;10.60;;;;;;;;;;5108865;28;20070;-85
2022/03/30 06:32:41;;;;;;;32.45;12.73;;;;;;;;;;5108516;28;20041;-83
2022/03/30 06:35:09;;;;;;;28.23;11.48;;;;;;;;;;5125174;28;20052;-82
2022/03/30 06:37:36;;;;;;;27.27;11.65;;;;;;;;;;5125832;27;20052;-83
2022/03/30 06:40:03;;;;;;;29.25;11.52;;;;;;;;;;5135775;27;20039;-82
2022/03/30 06:42:29;;;;;;;34.47;11.57;;;;;;;;;;5119728;27;20048;-82
2022/03/30 06:44:56;;;;;;;29.88;12.48;;;;;;;;;;5120016;28;20105;-83
2022/03/30 06:47:22;;;;;;;29.98;11.43;;;;;;;;;;5117018;28;20056;-82
2022/03/30 06:49:49;;;;;;;31.85;11.10;;;;;;;;;;5107792;27;20129;-83
2022/03/30 06:52:15;;;;;;;32.45;12.30;;;;;;;;;;5098132;28;20055;-81
2022/03/30 06:54:42;;;;;;;29.88;11.68;;;;;;;;;;5124209;28;20040;-82
2022/03/30 06:57:08;;;;;;;27.77;11.73;;;;;;;;;;5107958;28;20103;-83
2022/03/30 06:59:34;;;;;;;26.90;11.77;;;;;;;;;;5108488;28;20051;-81
2022/03/30 07:02:01;;;;;;;27.85;11.85;;;;;;;;;;5107115;28;20032;-82
2022/03/30 07:04:28;;;;;;;37.35;12.10;;;;;;;;;;5107167;28;20109;-82
2022/03/30 07:12:24;;;;;;;33.65;12.15;;;;;;;;;;5126857;28;20067;-82
2022/03/30 07:14:51;;;;;;;34.35;11.88;;;;;;;;;;5119000;28;20032;-82
2022/03/30 07:17:17;;;;;;;33.58;12.63;;;;;;;;;;5108827;28;20820;-82
2022/03/30 07:19:44;;;;;;;36.42;11.80;;;;;;;;;;5123999;28;20056;-84
2022/03/30 07:22:11;;;;;;;32.35;11.63;;;;;;;;;;5107287;28;20098;-82
2022/03/30 07:24:37;;;;;;;41.88;11.98;;;;;;;;;;5105161;28;20060;-84
2022/03/30 07:27:04;;;;;;;32.53;11.52;;;;;;;;;;5107877;28;20044;-84
2022/03/30 07:29:30;;;;;;;35.22;12.68;;;;;;;;;;5107298;28;20166;-84
2022/03/30 07:31:56;;;;;;;30.08;11.43;;;;;;;;;;5107885;28;20086;-83
2022/03/30 07:34:23;;;;;;;27.30;11.50;;;;;;;;;;5107356;28;20032;-84
2022/03/30 07:36:50;;;;;;;28.17;11.10;;;;;;;;;;5090522;28;20071;-83
2022/03/30 07:39:16;;;;;;;27.23;11.50;;;;;;;;;;5108621;28;20051;-84
2022/03/30 07:41:44;;;;;;;28.60;11.00;;;;;;;;;;5108293;28;20066;-82
2022/03/30 07:44:11;;;;;;;31.05;11.07;;;;;;;;;;5106633;28;20048;-83
2022/03/30 07:46:37;;;;;;;29.33;11.75;;;;;;;;;;5106248;27;20052;-83
2022/03/30 07:49:04;;;;;;;32.60;11.25;;;;;;;;;;5108510;28;20053;-84
2022/03/30 07:51:30;;;;;;;30.90;11.27;;;;;;;;;;5090385;28;20056;-81
2022/03/30 07:53:57;;;;;;;31.33;11.20;;;;;;;;;;5097465;28;20044;-83
2022/03/30 07:56:23;;;;;;;31.23;11.73;;;;;;;;;;5099052;28;20057;-81
2022/03/30 07:58:50;;;;;;;28.52;11.52;;;;;;;;;;5111908;28;20052;-82
2022/03/30 08:01:17;;;;;;;36.13;11.70;;;;;;;;;;5099082;28;22512;-82
2022/03/30 08:03:44;;;;;;;29.52;10.82;;;;;;;;;;5100365;28;20114;-82
2022/03/30 08:06:12;;;;;;;24.25;10.45;;;;;;;;;;5092298;28;20825;-82
2022/03/30 08:08:39;;;;;;;31.83;10.95;;;;;;;;;;5085067;28;20086;-82
2022/03/30 08:11:05;;;;;;;27.35;11.70;;;;;;;;;;5085986;28;21621;-82
2022/03/30 08:13:31;;;;;;;29.70;11.23;;;;;;;;;;5102401;28;20563;-82
2022/03/30 08:15:58;;;;;;;24.95;10.52;;;;;;;;;;5122544;28;20048;-82
2022/03/30 08:18:24;;;;;;;28.35;11.57;;;;;;;;;;5121923;28;20074;-82
2022/03/30 08:23:36;;;;;;;25.60;10.80;;;;;;;;;;5124198;28;20036;-84
2022/03/30 08:26:03;;;;;;;31.55;10.32;;;;;;;;;;5122238;28;20048;-84
2022/03/30 08:28:29;;;;;;;28.10;10.70;;;;;;;;;;5123075;28;20095;-83
2022/03/30 08:30:56;;;;;;;23.33;9.73;;;;;;;;;;5123646;27;20078;-84
2022/03/30 08:33:27;;;;;;;23.17;10.32;;;;;;;;;;5105143;28;20059;-83
2022/03/30 08:35:54;;;;;;;22.25;9.30;;;;;;;;;;5108149;28;20573;-85
2022/03/30 08:38:21;;;;;;;23.02;10.10;;;;;;;;;;5105404;28;20135;-84
2022/03/30 08:40:47;;;;;;;23.98;9.98;;;;;;;;;;5105492;28;20044;-84
2022/03/30 08:43:14;;;;;;;22.85;9.60;;;;;;;;;;5114767;28;20797;-84
2022/03/30 08:45:41;;;;;;;26.02;9.95;;;;;;;;;;5105395;28;20056;-83
2022/03/30 08:48:08;;;;;;;20.73;9.90;;;;;;;;;;5101908;28;20056;-85
2022/03/30 08:50:35;;;;;;;20.25;9.50;;;;;;;;;;5107059;28;20139;-83
2022/03/30 08:53:03;;;;;;;24.13;10.77;;;;;;;;;;5111975;28;20122;-82
2022/03/30 08:55:31;;;;;;;22.23;9.88;;;;;;;;;;5124756;27;20055;-81
2022/03/30 08:57:57;;;;;;;19.98;9.35;;;;;;;;;;5097291;28;20048;-84
2022/03/30 09:00:25;;;;;;;22.42;9.48;;;;;;;;;;5111992;28;20052;-82
2022/03/30 09:03:00;;;;;;;21.08;8.85;;;;;;;;;;5102489;28;20056;-83
2022/03/30 09:05:28;;;;;;;24.50;8.90;;;;;;;;;;5104654;28;20104;-85
2022/03/30 09:08:06;;;;;;;17.27;8.60;;;;;;;;;;5101592;28;20793;-85
2022/03/30 09:10:59;;;;;;;18.38;8.10;;;;;;;;;;5097954;28;20086;-82
2022/03/30 09:13:25;;;;;;;18.85;8.35;;;;;;;;;;5119477;27;20067;-84
2022/03/30 09:15:52;;;;;;;20.75;8.93;;;;;;;;;;5104509;28;20048;-84
2022/03/30 09:18:19;;;;;;;23.45;8.15;;;;;;;;;;5107720;28;20044;-83
2022/03/30 09:20:57;;;;;;;19.90;7.72;;;;;;;;;;5105125;28;20044;-84
2022/03/30 09:23:27;;;;;;;21.08;8.55;;;;;;;;;;5108708;28;20056;-84
2022/03/30 09:25:55;;;;;;;15.35;7.15;;;;;;;;;;5109286;28;20052;-83
2022/03/30 09:28:21;;;;;;;17.92;7.85;;;;;;;;;;5104080;28;20139;-84
2022/03/30 09:30:49;;;;;;;16.02;7.40;;;;;;;;;;5115998;28;20568;-84
2022/03/30 09:33:16;;;;;;;17.75;7.70;;;;;;;;;;5117404;27;20518;-83
2022/03/30 09:35:42;;;;;;;14.20;7.00;;;;;;;;;;5102045;28;20052;-82
2022/03/30 09:38:16;;;;;;;11.75;6.70;;;;;;;;;;5103964;28;20575;-81
2022/03/30 09:40:50;;;;;;;13.10;6.30;;;;;;;;;;5101229;28;20036;-81
2022/03/30 09:43:24;;;;;;;12.55;6.13;;;;;;;;;;5119616;28;20070;-81
2022/03/30 09:46:06;;;;;;;14.88;7.10;;;;;;;;;;5101456;28;20109;-81
2022/03/30 09:48:35;;;;;;;17.10;6.80;;;;;;;;;;5116391;28;20064;-80
2022/03/30 09:51:06;;;;;;;14.77;6.63;;;;;;;;;;5099194;28;20056;-81
2022/03/30 09:53:34;;;;;;;13.23;5.80;;;;;;;;;;5118960;28;20112;-81
2022/03/30 09:56:02;;;;;;;12.57;5.53;;;;;;;;;;5126585;27;20113;-81
2022/03/30 09:58:29;;;;;;;11.00;5.75;;;;;;;;;;5112424;28;20060;-81
2022/03/30 10:01:05;;;;;;;11.65;5.35;;;;;;;;;;5101140;28;20052;-82
2022/03/30 10:03:36;;;;;;;11.02;5.55;;;;;;;;;;5099917;28;20054;-81
2022/03/30 10:06:02;;;;;;;;;;;;;;;;;;5107828;27;20135;-77
2022/03/30 10:08:30;;;;;;;10.60;5.00;;;;;;;;;;5113276;27;47293;-79
2022/03/30 10:10:56;;;;;;;11.75;5.10;;;;;;;;;;5105340;27;20064;-81
2022/03/30 10:13:24;;;;;;;12.50;5.00;;;;;;;;;;5099721;28;20056;-81
2022/03/30 10:15:50;;;;;;;11.13;5.28;;;;;;;;;;5098704;28;20056;-78
2022/03/30 10:18:18;;;;;;;12.70;5.97;;;;;;;;;;5086382;28;20052;-78
2022/03/30 10:20:50;;;;;;;16.13;5.68;;;;;;;;;;5110589;28;20056;-78
2022/03/30 10:23:26;;;;;;;11.93;6.22;;;;;;;;;;5107645;28;20055;-80
2022/03/30 10:25:58;;;;;;;13.38;6.10;;;;;;;;;;5112191;28;20060;-79
2022/03/30 10:28:29;;;;;;;12.23;5.93;;;;;;;;;;5113685;28;20044;-80
2022/03/30 10:30:56;;;;;;;11.13;5.50;;;;;;;;;;5097554;28;20048;-81
2022/03/30 10:33:34;;;;;;;10.43;5.43;;;;;;;;;;5097793;28;20527;-81
2022/03/30 10:36:24;;;;;;;12.70;5.38;;;;;;;;;;5102070;28;20082;-81
2022/03/30 10:39:11;;;;;;;11.07;5.43;;;;;;;;;;5103483;28;20049;-81
2022/03/30 10:42:03;;;;;;;12.27;5.57;;;;;;;;;;5105017;28;20111;-80
2022/03/30 10:44:41;;;;;;;11.35;5.30;;;;;;;;;;5105003;28;20056;-82
2022/03/30 10:47:09;;;;;;;13.35;5.88;;;;;;;;;;5123408;28;20056;-81
2022/03/30 10:49:43;;;;;;;11.13;5.50;;;;;;;;;;5122459;28;20060;-82
2022/03/30 10:52:23;;;;;;;10.30;5.35;;;;;;;;;;5105763;28;20064;-83
2022/03/30 10:54:55;;;;;;;18.38;5.72;;;;;;;;;;5106341;28;20062;-83
2022/03/30 10:57:57;;;;;;;11.10;5.47;;;;;;;;;;5106048;28;20028;-82
2022/03/30 11:00:36;;;;;;;10.85;5.55;;;;;;;;;;5105863;28;20507;-82
2022/03/30 11:03:05;;;;;;;12.32;5.35;;;;;;;;;;5105119;28;20159;-85
2022/03/30 11:05:32;;;;;;;10.63;5.18;;;;;;;;;;5106081;28;20095;-81
2022/03/30 11:08:00;;;;;;;8.65;4.68;;;;;;;;;;5120986;28;20056;-82
2022/03/30 11:11:00;;;;;;;12.82;5.00;;;;;;;;;;5100335;28;20052;-83
2022/03/30 11:13:26;;;;;;;10.57;4.32;;;;;;;;;;5110437;28;20102;-83
2022/03/30 11:15:59;;;;;;;12.18;5.07;;;;;;;;;;5102661;28;20098;-82
2022/03/30 11:18:26;;;;;;;8.27;4.80;;;;;;;;;;5120817;28;20063;-83
2022/03/30 11:21:08;;;;;;;9.73;4.82;;;;;;;;;;5090789;28;20063;-81
2022/03/30 11:23:55;;;;;;;12.35;4.65;;;;;;;;;;5100720;28;20053;-84
2022/03/30 11:26:23;;;;;;;9.15;4.30;;;;;;;;;;5101525;28;20052;-85
2022/03/30 11:28:49;;;;;;;7.18;3.88;;;;;;;;;;5103664;28;20063;-82
2022/03/30 11:31:20;;;;;;;12.18;3.70;;;;;;;;;;5101753;28;20131;-84
2022/03/30 11:34:11;;;;;;;7.82;3.42;;;;;;;;;;5120449;28;20050;-85
2022/03/30 11:36:38;;;;;;;9.25;3.40;;;;;;;;;;5106428;28;20052;-83
2022/03/30 11:39:06;;;;;;;8.55;4.32;;;;;;;;;;5107242;28;20036;-86
2022/03/30 11:41:33;;;;;;;9.60;3.67;;;;;;;;;;5123867;28;20103;-84
2022/03/30 11:46:45;;;;;;;8.57;3.78;;;;;;;;;;5123659;28;20054;-84
2022/03/30 11:49:15;;;;;;;9.13;3.20;;;;;;;;;;5122798;28;20074;-84
2022/03/30 11:51:42;;;;;;;6.10;2.92;;;;;;;;;;5122921;28;20971;-83
2022/03/30 11:54:18;;;;;;;6.40;2.65;;;;;;;;;;5105148;28;20055;-83
2022/03/30 11:56:44;;;;;;;10.48;3.15;;;;;;;;;;5106023;28;20079;-83
2022/03/30 11:59:11;;;;;;;7.32;3.25;;;;;;;;;;5103290;28;20074;-81
2022/03/30 12:01:41;;;;;;;6.47;2.90;;;;;;;;;;5093615;28;20047;-86
2022/03/30 12:04:08;;;;;;;6.95;3.08;;;;;;;;;;5090226;28;20052;-88
2022/03/30 12:06:34;;;;;;;6.25;2.83;;;;;;;;;;5104324;28;20046;-84
2022/03/30 12:09:01;;;;;;;6.88;2.58;;;;;;;;;;5121540;27;20045;-83
2022/03/30 12:11:29;;;;;;;6.25;3.05;;;;;;;;;;5104407;28;20071;-84
2022/03/30 12:13:56;;;;;;;6.22;3.33;;;;;;;;;;5103753;28;20048;-85
2022/03/30 12:16:23;;;;;;;5.15;2.35;;;;;;;;;;5103036;28;20055;-84
2022/03/30 12:19:00;;;;;;;5.93;2.60;;;;;;;;;;5105213;28;20044;-80
2022/03/30 12:21:27;;;;;;;6.22;2.30;;;;;;;;;;5082018;28;20052;-81
2022/03/30 12:24:03;;;;;;;5.93;1.92;;;;;;;;;;5099712;28;20040;-83
2022/03/30 12:26:44;;;;;;;5.22;2.00;;;;;;;;;;5107174;28;20056;-86
2022/03/30 12:29:17;;;;;;;9.65;1.92;;;;;;;;;;5101540;27;20040;-83
2022/03/30 12:31:51;;;;;;;4.00;1.60;;;;;;;;;;5102584;28;20060;-86
2022/03/30 12:34:19;;;;;;;28.17;3.53;;;;;;;;;;5102201;28;20059;-86
2022/03/30 12:36:46;;;;;;;4.97;1.90;;;;;;;;;;5099468;28;20052;-83
2022/03/30 12:39:28;;;;;;;6.88;1.90;;;;;;;;;;5100058;28;20114;-84
2022/03/30 12:42:14;;;;;;;3.90;1.60;;;;;;;;;;5114367;28;20044;-84
2022/03/30 12:44:45;;;;;;;5.18;1.60;;;;;;;;;;5102893;28;20052;-81
2022/03/30 12:47:32;;;;;;;5.20;1.58;;;;;;;;;;5102462;27;20060;-85
2022/03/30 12:50:09;;;;;;;3.65;1.70;;;;;;;;;;5106238;28;20104;-87
2022/03/30 12:52:37;;;;;;;6.75;1.60;;;;;;;;;;5103359;27;20068;-83
2022/03/30 12:55:14;;;;;;;5.10;1.60;;;;;;;;;;5106463;28;20059;-83
2022/03/30 12:57:51;;;;;;;7.47;2.00;;;;;;;;;;5104714;28;20946;-84
2022/03/30 13:00:20;;;;;;;9.15;1.88;;;;;;;;;;5121796;28;20048;-83
2022/03/30 13:02:47;;;;;;;5.80;1.60;;;;;;;;;;5104616;28;20048;-84
2022/03/30 13:05:20;;;;;;;5.13;1.88;;;;;;;;;;5117817;27;20099;-82
2022/03/30 13:07:51;;;;;;;6.53;1.90;;;;;;;;;;5104587;28;20052;-83
2022/03/30 13:10:19;;;;;;;10.63;2.50;;;;;;;;;;5104010;28;20044;-84
2022/03/30 13:12:50;;;;;;;6.18;2.25;;;;;;;;;;5121148;28;20052;-83
2022/03/30 13:15:17;;;;;;;5.72;2.40;;;;;;;;;;5089608;28;20049;-82
2022/03/30 13:18:04;;;;;;;4.22;2.10;;;;;;;;;;5089449;28;20055;-84
2022/03/30 13:20:32;;;;;;;4.30;1.92;;;;;;;;;;5119652;28;20059;-82
2022/03/30 13:23:00;;;;;;;5.20;2.00;;;;;;;;;;5104126;28;20052;-83
2022/03/30 13:25:31;;;;;;;4.65;2.28;;;;;;;;;;5104506;28;20060;-82
2022/03/30 13:27:57;;;;;;;6.60;2.20;;;;;;;;;;5102862;28;20056;-82
2022/03/30 13:30:24;;;;;;;9.43;2.50;;;;;;;;;;5104131;28;20110;-85
2022/03/30 13:32:50;;;;;;;5.03;2.00;;;;;;;;;;5104830;28;20048;-85
2022/03/30 13:35:16;;;;;;;4.38;1.80;;;;;;;;;;5103915;28;20048;-85
2022/03/30 13:37:43;;;;;;;4.78;2.10;;;;;;;;;;5102544;28;20044;-83
2022/03/30 13:40:10;;;;;;;6.93;2.42;;;;;;;;;;5101531;28;20060;-81
2022/03/30 13:42:36;;;;;;;4.13;1.80;;;;;;;;;;5103712;28;20066;-81
2022/03/30 13:45:03;;;;;;;6.70;2.30;;;;;;;;;;5104002;28;20048;-85
2022/03/30 13:47:30;;;;;;;9.05;2.50;;;;;;;;;;5101376;28;20128;-83
2022/03/30 13:49:56;;;;;;;4.68;2.40;;;;;;;;;;5121278;28;20055;-81
2022/03/30 13:52:24;;;;;;;6.22;2.15;;;;;;;;;;5120953;27;20109;-84
2022/03/30 13:54:50;;;;;;;6.57;2.28;;;;;;;;;;5116930;28;20178;-81
2022/03/30 13:57:17;;;;;;;6.68;2.20;;;;;;;;;;5120134;28;20044;-83
2022/03/30 13:59:44;;;;;;;6.10;2.25;;;;;;;;;;5106397;28;20052;-82
2022/03/30 14:02:11;;;;;;;5.75;2.42;;;;;;;;;;5122566;28;20135;-81
2022/03/30 14:04:38;;;;;;;5.32;2.40;;;;;;;;;;5108814;28;20947;-83
2022/03/30 14:07:04;;;;;;;5.05;2.17;;;;;;;;;;5114554;28;20028;-83
2022/03/30 14:09:37;;;;;;;5.50;2.47;;;;;;;;;;5093433;28;20749;-81
2022/03/30 14:12:08;;;;;;;8.60;2.22;;;;;;;;;;5111825;28;20143;-83
2022/03/30 14:14:37;;;;;;;4.93;2.20;;;;;;;;;;5112716;28;20056;-82
2022/03/30 14:17:07;;;;;;;5.10;2.25;;;;;;;;;;5113896;28;20056;-82
2022/03/30 14:19:52;;;;;;;5.45;2.40;;;;;;;;;;5095393;27;20056;-82
2022/03/30 14:22:27;;;;;;;6.20;2.33;;;;;;;;;;5091978;28;20719;-83
2022/03/30 14:24:57;;;;;;;5.53;2.40;;;;;;;;;;5096070;28;20056;-82
2022/03/30 14:27:35;;;;;;;5.87;2.47;;;;;;;;;;5097383;28;20088;-82
2022/03/30 14:30:05;;;;;;;6.10;2.90;;;;;;;;;;5094580;28;20060;-80
2022/03/30 14:32:31;;;;;;;6.50;2.55;;;;;;;;;;5094643;28;20616;-83
2022/03/30 14:35:06;;;;;;;7.25;2.50;;;;;;;;;;5103192;28;20055;-82
2022/03/30 14:37:40;;;;;;;6.47;2.60;;;;;;;;;;5094942;28;20056;-82
2022/03/30 14:40:08;;;;;;;5.50;2.20;;;;;;;;;;5095312;28;20063;-81
2022/03/30 14:42:40;;;;;;;3.88;2.13;;;;;;;;;;5085490;28;20515;-81
2022/03/30 14:45:07;;;;;;;5.50;2.38;;;;;;;;;;5094921;28;20052;-82
2022/03/30 14:47:34;;;;;;;4.95;2.28;;;;;;;;;;5094541;28;20825;-83